Time;durP1;ratioP1;P1;durP2;ratioP2;P2;SDS_P1;SDS_P2;PMS_P1;PMS_P2;Temp;Humidity;BMP_temperature;BMP_pressure;BME280_temperature;BME280_humidity;BME280_pressure;Samples;Min_cycle;Max_cycle;Signal;HPM_P1;HPM_P2
2021/01/14 00:01:15;;;;;;;12.82;9.70;;;7.90;1.00;;;;;;5114855;28;20176;-92
2021/01/14 00:03:41;;;;;;;12.77;10.38;;;7.90;1.00;;;;;;5114653;28;20028;-92
2021/01/14 00:06:07;;;;;;;12.52;9.65;;;7.90;1.00;;;;;;5095838;28;20040;-93
2021/01/14 00:08:33;;;;;;;10.23;8.07;;;8.00;1.00;;;;;;5105257;28;20028;-92
2021/01/14 00:10:59;;;;;;;11.63;9.15;;;7.90;1.00;;;;;;5105655;28;20106;-92
2021/01/14 00:13:24;;;;;;;9.70;7.38;;;7.90;1.00;;;;;;5113857;28;20496;-92
2021/01/14 00:15:50;;;;;;;7.63;5.63;;;7.90;1.00;;;;;;5114402;28;20059;-93
2021/01/14 00:18:16;;;;;;;6.47;5.38;;;7.90;1.00;;;;;;5114474;28;20024;-93
2021/01/14 00:20:41;;;;;;;6.95;5.78;;;7.90;1.00;;;;;;5100114;28;20110;-92
2021/01/14 00:23:07;;;;;;;6.68;5.70;;;7.90;1.00;;;;;;5093946;28;20510;-92
2021/01/14 00:25:33;;;;;;;6.82;5.60;;;7.90;1.00;;;;;;5094033;28;20024;-92
2021/01/14 00:27:58;;;;;;;8.13;6.10;;;7.90;1.00;;;;;;5094031;28;20481;-92
2021/01/14 00:30:33;;;;;;;6.78;6.00;;;7.90;1.00;;;;;;5103892;28;20032;-92
2021/01/14 00:33:00;;;;;;;8.15;6.15;;;7.90;1.00;;;;;;5114053;28;20024;-93
2021/01/14 00:35:27;;;;;;;9.10;6.20;;;8.00;1.00;;;;;;5104850;28;20024;-92
2021/01/14 00:37:54;;;;;;;7.15;5.82;;;8.00;1.00;;;;;;5093597;28;20020;-93
2021/01/14 00:40:32;;;;;;;6.40;5.20;;;8.00;1.00;;;;;;5093380;28;20048;-92
2021/01/14 00:43:02;;;;;;;7.43;5.68;;;7.90;1.00;;;;;;5089446;28;20028;-92
2021/01/14 00:45:29;;;;;;;7.07;5.80;;;8.00;1.00;;;;;;5093618;28;20028;-92
2021/01/14 00:47:54;;;;;;;7.60;6.28;;;8.00;1.00;;;;;;5093609;28;20016;-92
2021/01/14 00:50:20;;;;;;;7.45;5.78;;;7.90;1.00;;;;;;5093576;28;20424;-92
2021/01/14 00:52:46;;;;;;;9.05;5.68;;;7.90;1.00;;;;;;5098256;28;20020;-92
2021/01/14 00:55:14;;;;;;;8.00;5.90;;;7.90;1.00;;;;;;5113490;28;20024;-93
2021/01/14 00:57:40;;;;;;;7.97;5.28;;;8.20;1.00;;;;;;5093345;28;20057;-92
2021/01/14 01:00:12;;;;;;;6.57;5.45;;;8.10;1.00;;;;;;5093317;28;20024;-92
2021/01/14 01:02:42;;;;;;;7.82;5.15;;;8.00;1.00;;;;;;5089161;28;20110;-92
2021/01/14 01:05:10;;;;;;;7.22;4.82;;;8.00;1.00;;;;;;5108116;28;20084;-92
2021/01/14 01:07:35;;;;;;;6.68;4.70;;;8.00;1.00;;;;;;5113322;28;20019;-93
2021/01/14 01:10:01;;;;;;;6.85;5.10;;;8.00;1.00;;;;;;5113097;28;20028;-92
2021/01/14 01:12:27;;;;;;;6.13;4.88;;;8.00;1.00;;;;;;5099457;28;20024;-93
2021/01/14 01:14:53;;;;;;;5.60;4.97;;;8.00;1.00;;;;;;5092813;28;20492;-93
2021/01/14 01:17:18;;;;;;;9.23;6.00;;;8.10;1.00;;;;;;5093172;28;20016;-93
2021/01/14 01:19:44;;;;;;;8.45;5.78;;;8.00;1.00;;;;;;5092710;28;20032;-93
2021/01/14 01:22:09;;;;;;;7.13;5.78;;;8.00;1.00;;;;;;5093333;28;20020;-92
2021/01/14 01:24:35;;;;;;;7.18;5.18;;;8.00;1.00;;;;;;5093120;28;20400;-93
2021/01/14 01:27:01;;;;;;;8.73;5.00;;;7.90;1.00;;;;;;5095778;28;20119;-92
2021/01/14 01:29:26;;;;;;;6.22;4.90;;;7.90;1.00;;;;;;5113134;28;20031;-93
2021/01/14 01:31:52;;;;;;;6.03;4.97;;;8.00;1.00;;;;;;5113229;28;20024;-92
2021/01/14 01:34:17;;;;;;;5.95;4.97;;;8.00;1.00;;;;;;5109286;28;20023;-92
2021/01/14 01:36:48;;;;;;;6.47;4.90;;;8.00;1.00;;;;;;5113107;28;20078;-93
2021/01/14 01:39:14;;;;;;;5.95;4.72;;;8.00;1.00;;;;;;5112915;28;20059;-93
2021/01/14 01:41:40;;;;;;;6.53;4.00;;;8.00;1.00;;;;;;5095549;28;20051;-93
2021/01/14 01:44:06;;;;;;;6.90;4.30;;;8.10;1.00;;;;;;5094878;28;20401;-93
2021/01/14 01:46:32;;;;;;;5.70;4.53;;;8.10;1.00;;;;;;5103988;28;20115;-93
2021/01/14 01:48:59;;;;;;;6.75;4.95;;;8.10;1.00;;;;;;5109160;28;20469;-93
2021/01/14 01:51:31;;;;;;;5.47;4.28;;;8.00;1.00;;;;;;5103744;28;20042;-93
2021/01/14 01:53:58;;;;;;;6.53;4.68;;;8.00;1.00;;;;;;5112986;28;20024;-94
2021/01/14 01:56:23;;;;;;;5.55;4.72;;;8.00;1.00;;;;;;5113019;28;20106;-93
2021/01/14 01:58:50;;;;;;;6.28;5.28;;;8.00;1.00;;;;;;5113052;28;20074;-93
2021/01/14 02:01:16;;;;;;;6.15;5.22;;;7.90;1.00;;;;;;5112929;28;20019;-92
2021/01/14 02:03:41;;;;;;;6.10;5.10;;;8.00;1.00;;;;;;5104613;28;20032;-92
2021/01/14 02:06:10;;;;;;;5.80;5.20;;;8.00;1.00;;;;;;5092365;28;20049;-92
2021/01/14 02:08:54;;;;;;;7.07;5.40;;;8.00;1.00;;;;;;5092421;28;20070;-92
2021/01/14 02:11:38;;;;;;;6.03;5.43;;;8.00;1.00;;;;;;5092627;28;20020;-93
2021/01/14 02:14:16;;;;;;;8.63;5.32;;;8.00;1.00;;;;;;5109365;28;20118;-93
2021/01/14 02:16:46;;;;;;;7.13;5.75;;;8.10;1.00;;;;;;5112843;28;20012;-93
2021/01/14 02:19:34;;;;;;;5.85;4.88;;;8.00;1.00;;;;;;5113007;28;20035;-93
2021/01/14 02:22:09;;;;;;;8.07;5.28;;;8.00;1.00;;;;;;5108714;28;20105;-93
2021/01/14 02:25:13;;;;;;;7.68;5.20;;;8.00;1.00;;;;;;5116688;28;20028;-93
2021/01/14 02:27:39;;;;;;;6.65;4.78;;;8.00;1.00;;;;;;5103758;28;20051;-93
2021/01/14 02:30:09;;;;;;;6.72;4.90;;;8.10;1.00;;;;;;5095945;28;20473;-92
2021/01/14 02:32:35;;;;;;;5.93;5.30;;;7.90;1.00;;;;;;5096535;28;20020;-93
2021/01/14 02:35:00;;;;;;;7.28;5.65;;;7.90;1.00;;;;;;5096050;28;20393;-93
2021/01/14 02:37:26;;;;;;;7.30;5.72;;;8.00;1.00;;;;;;5096188;28;20478;-93
2021/01/14 02:39:52;;;;;;;6.95;5.57;;;8.10;1.00;;;;;;5102705;28;20188;-93
2021/01/14 02:42:17;;;;;;;8.73;5.90;;;8.10;1.00;;;;;;5096118;28;20035;-92
2021/01/14 02:44:43;;;;;;;20.40;11.20;;;8.10;1.00;;;;;;5095950;28;20485;-93
2021/01/14 02:47:11;;;;;;;16.25;10.30;;;7.90;1.00;;;;;;5095636;28;20126;-93
2021/01/14 02:49:48;;;;;;;7.72;6.78;;;8.00;1.00;;;;;;5095955;28;20485;-93
2021/01/14 02:52:14;;;;;;;7.25;5.45;;;7.90;1.00;;;;;;5095785;28;20378;-93
2021/01/14 02:54:40;;;;;;;6.70;5.53;;;8.00;1.00;;;;;;5108469;28;20015;-93
2021/01/14 02:57:08;;;;;;;6.82;5.57;;;8.10;1.00;;;;;;5116357;28;20080;-93
2021/01/14 02:59:34;;;;;;;7.10;5.72;;;8.00;1.00;;;;;;5116415;28;20028;-93
2021/01/14 03:02:00;;;;;;;5.75;5.15;;;7.90;1.00;;;;;;5105093;28;20028;-93
2021/01/14 03:04:25;;;;;;;5.90;4.30;;;8.00;1.00;;;;;;5095612;28;20074;-93
2021/01/14 03:06:51;;;;;;;5.28;4.07;;;8.10;1.00;;;;;;5110257;28;20058;-93
2021/01/14 03:09:17;;;;;;;5.25;4.22;;;8.10;1.00;;;;;;5115762;28;20029;-93
2021/01/14 03:11:42;;;;;;;5.97;4.57;;;8.10;1.00;;;;;;5115943;28;20088;-93
2021/01/14 03:14:08;;;;;;;5.75;4.90;;;8.00;1.00;;;;;;5116018;28;20083;-93
2021/01/14 03:16:38;;;;;;;6.40;4.78;;;7.90;1.00;;;;;;5115595;28;20057;-93
2021/01/14 03:19:04;;;;;;;4.82;4.25;;;8.00;1.00;;;;;;5116029;28;20024;-93
2021/01/14 03:21:29;;;;;;;4.97;4.43;;;8.00;1.00;;;;;;5115562;28;20050;-93
2021/01/14 03:23:55;;;;;;;6.15;4.53;;;7.90;1.00;;;;;;5111375;28;20027;-93
2021/01/14 03:26:21;;;;;;;4.05;3.65;;;8.00;1.00;;;;;;5103448;28;20034;-93
2021/01/14 03:28:48;;;;;;;2.40;2.20;;;8.00;1.00;;;;;;5096019;28;20055;-93
2021/01/14 03:31:15;;;;;;;3.25;2.63;;;8.00;1.00;;;;;;5111511;28;20020;-93
2021/01/14 03:33:42;;;;;;;2.92;2.38;;;8.10;1.00;;;;;;5094370;28;20016;-92
2021/01/14 03:36:08;;;;;;;7.07;5.35;;;8.10;1.00;;;;;;5094832;28;20028;-93
2021/01/14 03:38:36;;;;;;;4.15;3.50;;;8.20;1.00;;;;;;5094389;28;20087;-93
2021/01/14 03:41:06;;;;;;;4.03;3.15;;;8.10;1.00;;;;;;5095167;28;20039;-92
2021/01/14 03:43:33;;;;;;;2.90;2.38;;;8.30;1.00;;;;;;5094979;28;20024;-92
2021/01/14 03:45:58;;;;;;;2.67;2.15;;;8.10;1.00;;;;;;5094592;28;20546;-93
2021/01/14 03:48:24;;;;;;;3.45;3.10;;;8.10;1.00;;;;;;5094726;28;20024;-93
2021/01/14 03:50:49;;;;;;;4.82;3.17;;;8.20;1.00;;;;;;5094949;28;20020;-92
2021/01/14 03:53:15;;;;;;;2.75;2.20;;;8.10;1.00;;;;;;5094367;28;20024;-93
2021/01/14 03:55:41;;;;;;;3.63;2.42;;;8.30;1.00;;;;;;5095061;28;20089;-92
2021/01/14 03:58:07;;;;;;;2.17;1.58;;;8.30;1.00;;;;;;5094507;28;20082;-93
2021/01/14 04:00:44;;;;;;;3.05;1.40;;;8.20;1.00;;;;;;5094694;28;20488;-93
2021/01/14 04:03:09;;;;;;;3.60;1.65;;;8.10;1.00;;;;;;5094521;28;20020;-93
2021/01/14 04:05:35;;;;;;;3.20;1.80;;;8.10;1.00;;;;;;5094363;28;20018;-93
2021/01/14 04:08:01;;;;;;;3.75;1.75;;;8.30;1.00;;;;;;5094334;28;20113;-93
2021/01/14 04:10:26;;;;;;;3.35;1.73;;;8.30;1.00;;;;;;5114565;28;20027;-93
2021/01/14 04:12:53;;;;;;;4.57;1.75;;;8.30;1.00;;;;;;5094346;28;20055;-93
2021/01/14 04:15:19;;;;;;;3.22;1.90;;;8.20;1.00;;;;;;5094254;28;20020;-92
2021/01/14 04:17:45;;;;;;;2.25;2.05;;;8.10;1.00;;;;;;5094270;28;20027;-92
2021/01/14 04:20:11;;;;;;;2.30;1.88;;;8.10;1.00;;;;;;5094383;28;20400;-93
2021/01/14 04:22:36;;;;;;;3.75;3.00;;;8.00;1.00;;;;;;5109307;28;20027;-93
2021/01/14 04:25:02;;;;;;;6.72;4.03;;;8.00;1.00;;;;;;5103267;28;20515;-92
2021/01/14 04:27:30;;;;;;;4.22;3.78;;;7.90;1.00;;;;;;5113506;28;20023;-92
2021/01/14 04:29:55;;;;;;;5.38;4.05;;;8.00;1.00;;;;;;5113999;28;20027;-90
2021/01/14 04:32:50;;;;;;;4.35;3.33;;;8.00;1.00;;;;;;5112970;28;20026;-93
2021/01/14 04:38:28;;;;;;;13.07;7.45;;;8.00;1.00;;;;;;5107673;28;20174;-94
2021/01/14 04:41:03;;;;;;;16.13;7.95;;;8.00;1.00;;;;;;5093930;28;20036;-91
2021/01/14 04:43:31;;;;;;;9.52;5.75;;;8.20;1.00;;;;;;5093468;28;20035;-92
2021/01/14 04:46:07;;;;;;;5.72;4.38;;;8.10;1.00;;;;;;5109951;28;20081;-92
2021/01/14 04:48:45;;;;;;;5.07;3.95;;;8.00;1.00;;;;;;5113661;28;20077;-91
2021/01/14 04:51:16;;;;;;;5.00;3.65;;;8.00;1.00;;;;;;5109015;28;20110;-92
2021/01/14 04:53:49;;;;;;;4.57;3.53;;;8.00;1.00;;;;;;5104068;28;20020;-91
2021/01/14 04:56:17;;;;;;;5.22;3.97;;;7.90;1.00;;;;;;5093182;28;20457;-92
2021/01/14 04:58:46;;;;;;;5.55;4.20;;;8.10;1.00;;;;;;5093661;28;20052;-91
2021/01/14 05:01:19;;;;;;;5.95;4.43;;;8.10;1.00;;;;;;5093274;28;20032;-92
2021/01/14 05:03:49;;;;;;;4.68;3.97;;;8.00;1.00;;;;;;5093550;28;20077;-91
2021/01/14 05:06:19;;;;;;;5.80;3.97;;;7.90;1.00;;;;;;5093319;28;20028;-91
2021/01/14 05:08:46;;;;;;;72.00;32.97;;;8.00;1.00;;;;;;5101296;28;20030;-92
2021/01/14 05:11:15;;;;;;;28.95;14.77;;;8.00;1.00;;;;;;5113279;28;20034;-90
2021/01/14 05:14:18;;;;;;;5.78;4.63;;;7.90;1.00;;;;;;5113161;28;20062;-92
2021/01/14 05:16:47;;;;;;;6.95;4.20;;;7.90;1.00;;;;;;5113170;28;20050;-92
2021/01/14 05:19:13;;;;;;;4.30;3.90;;;7.90;1.00;;;;;;5113292;28;20488;-92
2021/01/14 05:21:40;;;;;;;5.18;4.50;;;7.80;1.00;;;;;;5113094;28;20068;-90
2021/01/14 05:24:08;;;;;;;7.05;4.80;;;7.80;1.00;;;;;;5095701;28;20497;-90
2021/01/14 05:26:33;;;;;;;5.57;4.80;;;7.80;1.00;;;;;;5092515;28;20386;-90
2021/01/14 05:29:17;;;;;;;6.60;4.70;;;7.80;1.00;;;;;;5091825;28;20031;-90
2021/01/14 05:31:47;;;;;;;5.25;4.38;;;7.90;1.00;;;;;;5091392;28;20036;-90
2021/01/14 05:34:17;;;;;;;6.72;5.57;;;7.90;1.00;;;;;;5092147;28;20023;-90
2021/01/14 05:36:51;;;;;;;7.70;5.78;;;7.80;1.00;;;;;;5091737;28;20031;-90
2021/01/14 05:39:18;;;;;;;8.68;6.18;;;7.90;1.00;;;;;;5109915;28;20039;-90
2021/01/14 05:41:43;;;;;;;8.82;6.25;;;7.90;1.00;;;;;;5112676;28;20028;-90
2021/01/14 05:44:09;;;;;;;8.45;7.05;;;8.00;1.00;;;;;;5102060;28;20388;-90
2021/01/14 05:46:35;;;;;;;8.50;6.82;;;8.00;1.00;;;;;;5101895;28;20061;-90
2021/01/14 05:49:03;;;;;;;10.38;8.88;;;8.00;1.00;;;;;;5109372;28;20031;-90
2021/01/14 05:51:30;;;;;;;11.30;9.73;;;8.00;1.00;;;;;;5112621;28;20027;-90
2021/01/14 05:54:09;;;;;;;7.57;6.30;;;7.90;1.00;;;;;;5096792;28;20080;-90
2021/01/14 05:56:50;;;;;;;6.35;5.30;;;8.00;1.00;;;;;;5099543;28;20047;-90
2021/01/14 05:59:17;;;;;;;6.63;5.28;;;8.10;1.00;;;;;;5104008;28;20473;-91
2021/01/14 06:01:53;;;;;;;8.68;6.22;;;7.90;1.00;;;;;;5097775;28;20474;-90
2021/01/14 06:04:24;;;;;;;7.38;5.75;;;7.90;1.00;;;;;;5097498;28;20095;-90
2021/01/14 06:06:52;;;;;;;7.07;5.78;;;7.80;1.00;;;;;;5095032;28;20028;-91
2021/01/14 06:09:20;;;;;;;6.03;5.30;;;7.80;1.00;;;;;;5104047;28;20041;-90
2021/01/14 06:11:47;;;;;;;8.02;6.07;;;7.90;1.00;;;;;;5107704;28;20114;-91
2021/01/14 06:14:24;;;;;;;6.88;5.72;;;7.80;1.00;;;;;;5104056;28;20020;-91
2021/01/14 06:16:51;;;;;;;8.05;5.85;;;7.80;1.00;;;;;;5105858;28;20020;-91
2021/01/14 06:19:17;;;;;;;8.00;5.72;;;8.00;1.00;;;;;;5106809;28;20019;-92
2021/01/14 06:21:46;;;;;;;7.03;5.55;;;8.00;1.00;;;;;;5110205;28;20024;-92
2021/01/14 06:24:28;;;;;;;9.10;7.93;;;7.90;1.00;;;;;;5106482;28;20077;-90
2021/01/14 06:26:54;;;;;;;8.38;6.88;;;7.90;1.00;;;;;;5108276;28;20023;-91
2021/01/14 06:29:28;;;;;;;38.08;31.77;;;8.10;1.00;;;;;;5104878;28;20098;-91
2021/01/14 06:32:15;;;;;;;12.52;10.32;;;7.80;1.00;;;;;;5103259;28;20024;-91
2021/01/14 06:34:43;;;;;;;8.98;7.68;;;7.90;1.00;;;;;;5106987;27;20027;-90
2021/01/14 06:37:15;;;;;;;9.57;6.80;;;8.00;1.00;;;;;;5100570;28;20024;-92
2021/01/14 06:39:51;;;;;;;7.13;5.80;;;7.90;1.00;;;;;;5100225;28;20077;-93
2021/01/14 06:42:34;;;;;;;7.43;6.07;;;7.90;1.00;;;;;;5111892;28;20036;-92
2021/01/14 06:45:08;;;;;;;7.97;5.50;;;7.90;1.00;;;;;;5103519;28;20023;-94
2021/01/14 06:47:37;;;;;;;7.93;5.05;;;7.90;1.00;;;;;;5103833;28;20019;-91
2021/01/14 06:50:14;;;;;;;10.00;5.45;;;7.90;1.00;;;;;;5102658;28;20024;-92
2021/01/14 06:53:07;;;;;;;7.00;4.45;;;8.00;1.00;;;;;;5108864;28;20027;-93
2021/01/14 06:55:33;;;;;;;7.35;4.95;;;8.00;1.00;;;;;;5116341;28;20059;-91
2021/01/14 06:58:05;;;;;;;6.07;5.20;;;7.90;1.00;;;;;;5116041;28;20024;-91
2021/01/14 07:00:32;;;;;;;8.68;5.68;;;8.00;1.00;;;;;;5115403;28;20012;-91
2021/01/14 07:03:04;;;;;;;7.65;6.13;;;8.00;1.00;;;;;;5113061;28;20035;-91
2021/01/14 07:05:43;;;;;;;8.35;5.32;;;8.10;1.00;;;;;;5115389;28;20071;-90
2021/01/14 07:08:33;;;;;;;7.30;5.15;;;7.90;1.00;;;;;;5097296;28;20551;-91
2021/01/14 07:11:08;;;;;;;5.95;4.75;;;7.90;1.00;;;;;;5094897;28;20090;-91
2021/01/14 07:13:41;;;;;;;9.07;7.07;;;7.90;1.00;;;;;;5110629;28;20032;-91
2021/01/14 07:16:10;;;;;;;10.15;7.07;;;7.90;1.00;;;;;;5115072;28;20055;-91
2021/01/14 07:18:37;;;;;;;11.20;8.10;;;7.90;1.00;;;;;;5115198;28;20045;-91
2021/01/14 07:21:34;;;;;;;10.50;8.18;;;8.00;1.00;;;;;;5115101;28;20401;-91
2021/01/14 07:24:19;;;;;;;11.82;8.85;;;7.80;1.00;;;;;;5114879;28;20043;-91
2021/01/14 07:26:52;;;;;;;12.15;8.55;;;7.90;1.00;;;;;;5114979;28;20465;-92
2021/01/14 07:29:18;;;;;;;9.27;8.20;;;7.80;1.00;;;;;;5111942;28;20396;-91
2021/01/14 07:31:48;;;;;;;11.27;9.05;;;7.90;1.00;;;;;;5097970;28;20100;-91
2021/01/14 07:34:30;;;;;;;12.45;8.35;;;7.80;1.00;;;;;;5114341;28;20038;-91
2021/01/14 07:36:56;;;;;;;10.55;8.32;;;7.80;1.00;;;;;;5110211;28;20059;-91
2021/01/14 07:39:44;;;;;;;11.88;8.40;;;7.80;1.00;;;;;;5114288;28;20073;-91
2021/01/14 07:42:18;;;;;;;11.13;7.35;;;7.80;1.00;;;;;;5113786;28;20028;-91
2021/01/14 07:44:52;;;;;;;9.80;7.75;;;7.90;1.00;;;;;;5114478;28;20088;-91
2021/01/14 07:47:28;;;;;;;12.02;8.20;;;7.80;1.00;;;;;;5114739;28;20362;-91
2021/01/14 07:49:54;;;;;;;9.73;7.07;;;7.80;1.00;;;;;;5114396;28;20463;-90
2021/01/14 07:52:34;;;;;;;8.85;6.75;;;8.10;1.00;;;;;;5099023;28;20114;-89
2021/01/14 07:55:08;;;;;;;8.02;6.20;;;7.90;1.00;;;;;;5107515;28;20026;-90
2021/01/14 07:57:44;;;;;;;6.97;5.80;;;7.80;1.00;;;;;;5114226;28;20051;-90
2021/01/14 08:00:20;;;;;;;8.43;6.18;;;7.90;1.00;;;;;;5113884;28;20484;-89
2021/01/14 08:03:04;;;;;;;8.77;6.20;;;8.00;1.00;;;;;;5113840;28;20077;-91
2021/01/14 08:05:43;;;;;;;10.32;7.95;;;7.90;1.00;;;;;;5114190;28;20444;-92
2021/01/14 08:08:36;;;;;;;11.00;8.10;;;7.90;1.00;;;;;;5113893;28;20027;-96
2021/01/14 08:11:16;;;;;;;10.45;6.70;;;8.10;1.00;;;;;;5113783;28;20050;-89
2021/01/14 08:14:04;;;;;;;7.20;5.93;;;8.00;1.00;;;;;;5114271;28;20051;-95
2021/01/14 08:16:32;;;;;;;9.65;6.95;;;8.00;1.00;;;;;;5114357;28;20465;-95
2021/01/14 08:19:28;;;;;;;8.50;6.40;;;8.00;1.00;;;;;;5114857;28;20119;-95
2021/01/14 08:22:01;;;;;;;7.25;5.97;;;8.10;1.00;;;;;;5104049;28;20059;-95
2021/01/14 08:24:49;;;;;;;8.05;5.65;;;8.10;1.00;;;;;;5095481;28;20112;-95
2021/01/14 08:27:22;;;;;;;6.25;5.32;;;8.20;1.00;;;;;;5095246;28;20075;-96
2021/01/14 08:30:01;;;;;;;5.43;4.75;;;8.30;1.00;;;;;;5094679;28;20027;-96
2021/01/14 08:32:40;;;;;;;6.47;5.25;;;8.30;1.00;;;;;;5094586;28;20073;-93
2021/01/14 08:35:16;;;;;;;7.55;5.72;;;8.30;1.00;;;;;;5095027;28;20016;-94
2021/01/14 08:37:47;;;;;;;8.57;6.10;;;8.30;1.00;;;;;;5094348;28;20036;-96
2021/01/14 08:40:14;;;;;;;10.25;6.88;;;8.40;1.00;;;;;;5093854;28;20048;-95
2021/01/14 08:42:41;;;;;;;8.85;7.20;;;8.40;1.00;;;;;;5094089;28;20123;-95
2021/01/14 08:45:16;;;;;;;10.50;7.60;;;8.40;1.00;;;;;;5093927;28;20024;-95
2021/01/14 08:48:04;;;;;;;11.07;7.07;;;8.40;1.00;;;;;;5093691;28;20089;-95
2021/01/14 08:50:46;;;;;;;9.80;6.20;;;8.40;1.00;;;;;;5093926;28;20466;-95
2021/01/14 08:53:34;;;;;;;10.43;7.78;;;8.60;1.00;;;;;;5094076;28;20077;-95
2021/01/14 08:56:05;;;;;;;8.30;6.53;;;8.60;1.00;;;;;;5093729;28;20020;-95
2021/01/14 08:58:37;;;;;;;12.45;10.50;;;8.70;1.00;;;;;;5093563;28;20470;-96
2021/01/14 09:01:05;;;;;;;15.55;12.93;;;8.60;1.00;;;;;;5093799;28;20047;-94
2021/01/14 09:03:30;;;;;;;10.15;8.88;;;8.60;1.00;;;;;;5093962;28;20020;-95
2021/01/14 09:05:56;;;;;;;8.25;6.30;;;8.80;1.00;;;;;;5093585;28;20059;-95
2021/01/14 09:08:22;;;;;;;8.23;6.20;;;8.70;1.00;;;;;;5093349;28;20115;-95
2021/01/14 09:10:52;;;;;;;7.90;5.80;;;8.80;1.00;;;;;;5093435;28;20024;-96
2021/01/14 09:13:26;;;;;;;7.53;5.75;;;8.70;1.00;;;;;;5093763;28;20028;-95
2021/01/14 09:15:54;;;;;;;7.05;5.13;;;8.60;1.00;;;;;;5089199;28;20477;-95
2021/01/14 09:18:40;;;;;;;10.07;6.20;;;8.70;1.00;;;;;;5093262;28;20024;-95
2021/01/14 09:21:07;;;;;;;8.00;5.32;;;8.70;1.00;;;;;;5093382;28;20016;-96
2021/01/14 09:23:35;;;;;;;8.02;5.40;;;8.80;1.00;;;;;;5093554;28;20024;-95
2021/01/14 09:26:12;;;;;;;6.18;5.13;;;8.90;1.00;;;;;;5093200;28;20504;-95
2021/01/14 09:28:39;;;;;;;6.25;5.30;;;8.90;1.00;;;;;;5093212;28;20024;-95
2021/01/14 09:31:07;;;;;;;8.88;5.97;;;8.80;1.00;;;;;;5092943;28;20020;-95
2021/01/14 09:33:35;;;;;;;7.68;5.80;;;8.80;1.00;;;;;;5093344;28;20024;-95
2021/01/14 09:36:03;;;;;;;8.63;6.80;;;8.90;1.00;;;;;;5093294;28;20016;-95
2021/01/14 09:38:30;;;;;;;10.15;7.00;;;9.00;1.00;;;;;;5092918;28;20032;-95
2021/01/14 09:40:57;;;;;;;9.40;6.65;;;9.10;1.00;;;;;;5092867;28;20016;-96
2021/01/14 09:43:26;;;;;;;9.80;6.30;;;9.10;1.00;;;;;;5093341;28;20495;-95
2021/01/14 09:45:52;;;;;;;10.88;6.95;;;9.00;1.00;;;;;;5092844;28;20020;-95
2021/01/14 09:48:22;;;;;;;11.40;7.40;;;8.90;1.00;;;;;;5093323;28;20026;-95
2021/01/14 09:50:48;;;;;;;9.18;7.43;;;8.90;1.00;;;;;;5092985;28;20032;-95
2021/01/14 09:53:14;;;;;;;8.85;6.60;;;8.90;1.00;;;;;;5092943;28;20025;-95
2021/01/14 09:55:40;;;;;;;10.10;7.53;;;9.00;1.00;;;;;;5092952;28;20028;-95
2021/01/14 09:58:10;;;;;;;9.93;7.30;;;9.10;1.00;;;;;;5092965;28;20054;-95
2021/01/14 10:04:08;;;;;;;10.63;7.90;;;9.20;1.00;;;;;;5093839;28;20023;-95
2021/01/14 10:06:39;;;;;;;11.05;8.82;;;9.30;1.00;;;;;;5092515;28;20026;-95
2021/01/14 10:09:05;;;;;;;10.93;7.72;;;9.30;1.00;;;;;;5093312;28;20024;-95
2021/01/14 10:11:33;;;;;;;9.93;8.80;;;9.40;1.00;;;;;;5092648;28;20024;-95
2021/01/14 10:13:59;;;;;;;12.82;9.85;;;9.50;1.00;;;;;;5092663;28;20044;-95
2021/01/14 10:16:24;;;;;;;12.02;9.18;;;9.70;1.00;;;;;;5093115;28;20500;-95
2021/01/14 10:18:50;;;;;;;15.20;10.70;;;9.80;1.00;;;;;;5092626;28;20024;-95
2021/01/14 10:21:24;;;;;;;12.95;10.45;;;9.80;1.00;;;;;;5092658;28;20043;-95
2021/01/14 10:23:50;;;;;;;14.27;10.45;;;10.00;1.00;;;;;;5092616;28;20032;-95
2021/01/14 10:26:29;;;;;;;14.18;11.02;;;10.40;1.00;;;;;;5092343;28;20028;-95
2021/01/14 10:28:55;;;;;;;17.48;11.73;;;10.50;1.00;;;;;;5092407;28;20027;-95
2021/01/14 10:31:44;;;;;;;13.82;10.52;;;10.20;1.00;;;;;;5092588;28;20058;-95
2021/01/14 10:34:09;;;;;;;14.23;10.73;;;9.90;1.00;;;;;;5089388;28;20052;-95
2021/01/14 10:37:04;;;;;;;13.00;10.50;;;9.80;1.00;;;;;;5092269;28;20478;-95
2021/01/14 10:39:40;;;;;;;10.02;8.52;;;9.60;1.00;;;;;;5083393;28;20044;-95
2021/01/14 10:42:27;;;;;;;10.95;8.13;;;9.70;1.00;;;;;;5092563;28;20474;-95
2021/01/14 10:44:54;;;;;;;8.45;7.25;;;9.80;1.00;;;;;;5096395;28;20024;-94
2021/01/14 10:47:22;;;;;;;9.50;6.70;;;9.80;1.00;;;;;;5096541;28;20024;-96
2021/01/14 10:49:48;;;;;;;12.32;7.55;;;9.70;1.00;;;;;;5095987;28;20024;-95
2021/01/14 10:52:13;;;;;;;8.80;6.72;;;9.70;1.00;;;;;;5096206;28;20046;-95
2021/01/14 10:54:39;;;;;;;8.02;6.22;;;9.70;1.00;;;;;;5095893;28;20069;-96
2021/01/14 10:57:05;;;;;;;7.88;5.45;;;9.60;1.00;;;;;;5095805;28;20071;-95
2021/01/14 10:59:31;;;;;;;6.10;4.90;;;9.60;1.00;;;;;;5095950;28;20020;-95
2021/01/14 11:02:05;;;;;;;6.07;4.40;;;9.60;1.00;;;;;;5096182;28;20039;-95
2021/01/14 11:04:30;;;;;;;5.72;4.30;;;9.70;1.00;;;;;;5095921;28;20024;-95
2021/01/14 11:06:56;;;;;;;6.28;3.97;;;9.80;1.00;;;;;;5096070;28;20117;-95
2021/01/14 11:09:22;;;;;;;6.22;3.65;;;9.80;1.00;;;;;;5095645;28;20032;-95
2021/01/14 11:11:47;;;;;;;5.10;3.45;;;9.70;1.00;;;;;;5095534;28;20035;-95
2021/01/14 11:14:17;;;;;;;4.93;3.63;;;9.70;1.00;;;;;;5095588;28;20023;-95
2021/01/14 11:16:43;;;;;;;5.60;4.07;;;9.80;1.00;;;;;;5095631;28;20111;-95
2021/01/14 11:19:10;;;;;;;6.68;3.75;;;9.80;1.00;;;;;;5095483;28;20058;-95
2021/01/14 11:21:37;;;;;;;5.82;3.28;;;9.90;1.00;;;;;;5095653;28;20031;-95
2021/01/14 11:24:03;;;;;;;4.50;3.38;;;9.90;1.00;;;;;;5095629;28;20024;-95
2021/01/14 11:26:29;;;;;;;5.30;3.90;;;9.80;1.00;;;;;;5095149;28;20061;-95
2021/01/14 11:28:55;;;;;;;4.85;3.92;;;9.70;1.00;;;;;;5095003;28;20118;-95
2021/01/14 11:31:23;;;;;;;5.95;4.35;;;9.70;1.00;;;;;;5095569;28;20023;-96
2021/01/14 11:33:49;;;;;;;6.00;4.50;;;9.60;1.00;;;;;;5095358;28;20074;-95
2021/01/14 11:36:20;;;;;;;7.43;4.60;;;9.70;1.00;;;;;;5095639;28;20023;-95
2021/01/14 11:38:47;;;;;;;7.28;4.70;;;9.60;1.00;;;;;;5094911;28;20065;-95
2021/01/14 11:41:17;;;;;;;7.95;5.40;;;9.60;1.00;;;;;;5095056;28;20107;-95
2021/01/14 11:43:43;;;;;;;7.65;5.68;;;9.60;1.00;;;;;;5094925;28;20016;-95
2021/01/14 11:46:08;;;;;;;6.47;5.10;;;9.60;1.00;;;;;;5095326;28;20027;-95
2021/01/14 11:48:34;;;;;;;6.63;5.30;;;9.60;1.00;;;;;;5094818;28;20035;-96
2021/01/14 11:51:00;;;;;;;6.35;4.72;;;9.70;1.00;;;;;;5094821;28;20020;-96
2021/01/14 11:53:25;;;;;;;7.15;5.00;;;9.70;1.00;;;;;;5094857;28;20031;-95
2021/01/14 11:55:51;;;;;;;5.55;4.20;;;9.60;1.00;;;;;;5094193;28;20027;-95
2021/01/14 11:58:17;;;;;;;3.85;3.38;;;9.60;1.00;;;;;;5094842;28;20483;-96
2021/01/14 12:00:45;;;;;;;5.75;3.75;;;9.60;1.00;;;;;;5094772;28;20020;-95
2021/01/14 12:03:10;;;;;;;4.75;3.85;;;9.60;1.00;;;;;;5094958;28;20119;-96
2021/01/14 12:05:36;;;;;;;5.35;4.50;;;9.60;1.00;;;;;;5094511;28;20119;-96
2021/01/14 12:08:03;;;;;;;5.43;4.22;;;9.60;1.00;;;;;;5095040;28;20081;-96
2021/01/14 12:10:29;;;;;;;4.60;4.07;;;9.50;1.00;;;;;;5094443;28;20032;-95
2021/01/14 12:12:54;;;;;;;6.15;4.55;;;9.60;1.00;;;;;;5094654;28;20091;-95
2021/01/14 12:15:20;;;;;;;5.10;4.28;;;9.60;1.00;;;;;;5096429;28;20047;-95
2021/01/14 12:17:46;;;;;;;6.63;5.00;;;9.60;1.00;;;;;;5113850;28;20028;-93
2021/01/14 12:20:12;;;;;;;6.90;4.53;;;9.70;1.00;;;;;;5114140;28;20392;-95
2021/01/14 12:22:41;;;;;;;6.93;4.53;;;9.60;1.00;;;;;;5097985;28;20107;-89
2021/01/14 12:25:11;;;;;;;6.88;4.50;;;9.60;1.00;;;;;;5094538;28;20028;-95
2021/01/14 12:27:39;;;;;;;9.02;5.32;;;9.60;1.00;;;;;;5095087;28;20036;-94
2021/01/14 12:30:06;;;;;;;8.85;4.55;;;9.60;1.00;;;;;;5093866;28;20397;-95
2021/01/14 12:32:32;;;;;;;7.28;5.55;;;9.70;1.00;;;;;;5107050;27;20057;-94
2021/01/14 12:34:58;;;;;;;7.80;5.53;;;9.70;1.00;;;;;;5102202;28;20081;-93
2021/01/14 12:37:23;;;;;;;8.55;5.55;;;9.70;1.00;;;;;;5105843;28;20027;-95
2021/01/14 12:39:49;;;;;;;12.25;7.82;;;9.70;1.00;;;;;;5111258;28;20052;-94
2021/01/14 12:42:15;;;;;;;10.32;7.38;;;9.70;1.00;;;;;;5113835;28;20027;-93
2021/01/14 12:44:40;;;;;;;8.40;6.40;;;9.70;1.00;;;;;;5097725;28;20027;-95
2021/01/14 12:47:06;;;;;;;9.95;6.03;;;9.80;1.00;;;;;;5093720;28;20429;-95
2021/01/14 12:49:32;;;;;;;7.20;5.93;;;9.80;1.00;;;;;;5096297;28;20041;-94
2021/01/14 12:51:57;;;;;;;6.43;4.90;;;9.70;1.00;;;;;;5100516;28;20073;-94
2021/01/14 12:54:23;;;;;;;6.82;5.50;;;9.70;1.00;;;;;;5106056;28;20112;-93
2021/01/14 12:56:49;;;;;;;6.03;4.50;;;9.60;1.00;;;;;;5106427;28;20031;-95
2021/01/14 12:59:15;;;;;;;5.68;4.35;;;9.70;1.00;;;;;;5111941;28;20032;-95
2021/01/14 13:01:40;;;;;;;5.68;4.10;;;9.80;1.00;;;;;;5094541;28;20039;-89
2021/01/14 13:04:07;;;;;;;7.20;4.47;;;9.80;1.00;;;;;;5093420;28;20020;-95
2021/01/14 13:06:35;;;;;;;5.47;4.40;;;9.80;1.00;;;;;;5092862;28;20501;-95
2021/01/14 13:09:03;;;;;;;6.55;4.40;;;9.80;1.00;;;;;;5093452;28;20024;-95
2021/01/14 13:11:31;;;;;;;5.90;4.43;;;9.80;1.00;;;;;;5093647;28;20032;-95
2021/01/14 13:13:58;;;;;;;5.63;3.72;;;9.70;1.00;;;;;;5093741;28;20481;-95
2021/01/14 13:16:56;;;;;;;5.78;4.47;;;9.70;1.00;;;;;;5093404;28;20024;-95
2021/01/14 13:19:22;;;;;;;6.85;4.05;;;9.80;1.00;;;;;;5085370;28;20040;-95
2021/01/14 13:21:49;;;;;;;12.30;4.75;;;9.80;1.00;;;;;;5093179;28;20030;-95
2021/01/14 13:24:20;;;;;;;7.28;3.90;;;9.90;1.00;;;;;;5093395;28;20024;-95
2021/01/14 13:26:46;;;;;;;5.50;4.40;;;9.90;1.00;;;;;;5093744;28;20034;-96